createdAt,value
2023-08-14T00:01:46.815Z,97919.36
2023-08-14T00:04:50.316Z,97918.73
2023-08-14T00:07:53.525Z,97917.86
2023-08-14T00:10:56.457Z,97921.42
2023-08-14T00:13:59.353Z,97925.73
2023-08-14T00:17:02.191Z,97926.29
2023-08-14T00:20:05.762Z,97933.36
2023-08-14T00:23:09.170Z,97938.25
2023-08-14T00:26:16.159Z,97940.98
2023-08-14T00:29:18.991Z,97943.19
2023-08-14T00:32:21.966Z,97945.36
2023-08-14T00:35:24.889Z,97948.05
2023-08-14T00:38:28.165Z,97953.21
2023-08-14T00:41:32.191Z,97956.50
2023-08-14T00:44:35.095Z,97962.97
2023-08-14T00:47:38.854Z,97969.39
2023-08-14T00:50:43.900Z,97973.05
2023-08-14T00:53:47.170Z,97977.98
2023-08-14T00:56:50.448Z,97987.44
2023-08-14T00:59:53.530Z,97984.20
2023-08-14T01:02:57.102Z,97991.13
2023-08-14T01:06:00.673Z,98001.15
2023-08-14T01:09:03.659Z,98002.80
2023-08-14T01:12:16.393Z,98003.13
2023-08-14T01:15:30.081Z,98003.56
2023-08-14T01:18:35.070Z,98007.18
2023-08-14T01:21:52.388Z,98005.45
2023-08-14T01:25:28.403Z,98001.66
2023-08-14T01:28:32.105Z,98003.80
2023-08-14T01:31:35.034Z,98006.13
2023-08-14T01:34:38.048Z,98010.79
2023-08-14T01:37:56.038Z,98013.40
2023-08-14T01:41:56.575Z,98009.91
2023-08-14T01:45:03.449Z,98007.20
2023-08-14T01:48:12.721Z,98004.86
2023-08-14T01:51:17.764Z,97999.81
2023-08-14T01:54:21.344Z,97994.48
2023-08-14T01:57:24.202Z,97995.05
2023-08-14T02:00:27.959Z,98002.88
2023-08-14T02:03:31.468Z,97997.70
2023-08-14T02:06:34.866Z,97998.31
2023-08-14T02:09:38.234Z,98000.23
2023-08-14T02:12:41.176Z,98000.99
2023-08-14T02:15:47.482Z,97999.84
2023-08-14T02:18:50.544Z,98003.19
2023-08-14T02:21:53.649Z,98007.08
2023-08-14T02:24:56.560Z,98010.23
2023-08-14T02:27:59.452Z,98009.13
2023-08-14T02:31:04.248Z,98007.98
2023-08-14T02:34:07.281Z,98005.73
2023-08-14T02:37:10.824Z,97999.42
2023-08-14T02:40:13.739Z,97995.27
2023-08-14T02:43:16.737Z,97991.91
2023-08-14T02:46:19.654Z,97990.17
2023-08-14T02:49:22.796Z,97988.83
2023-08-14T02:52:25.607Z,97988.08
2023-08-14T02:55:28.561Z,97996.11
2023-08-14T02:58:32.687Z,98000.60
2023-08-14T03:01:35.655Z,97999.77
2023-08-14T03:04:38.583Z,97999.25
2023-08-14T03:07:41.534Z,97996.23
2023-08-14T03:10:44.445Z,97998.16
2023-08-14T03:13:47.401Z,97997.95
2023-08-14T03:16:50.516Z,98001.89
2023-08-14T03:19:53.591Z,98002.16
2023-08-14T03:22:56.537Z,98002.17
2023-08-14T03:25:59.475Z,98001.70
2023-08-14T03:29:02.418Z,98002.64
2023-08-14T03:32:05.645Z,98006.03
2023-08-14T03:35:08.669Z,98007.30
2023-08-14T03:38:11.515Z,98010.73
2023-08-14T03:41:14.480Z,98012.52
2023-08-14T03:44:17.404Z,98012.02
2023-08-14T03:47:20.407Z,98009.53
2023-08-14T03:50:23.587Z,98007.91
2023-08-14T03:53:26.522Z,98008.27
2023-08-14T03:56:29.784Z,98014.85
2023-08-14T03:59:32.757Z,98014.97
2023-08-14T04:02:35.699Z,98010.86
2023-08-14T04:05:42.257Z,98004.91
2023-08-14T04:08:45.123Z,98014.14
2023-08-14T04:11:48.066Z,98013.59
2023-08-14T04:14:51.519Z,98016.02
2023-08-14T04:17:54.553Z,98016.90
2023-08-14T04:20:58.362Z,98014.00
2023-08-14T04:24:01.201Z,98013.71
2023-08-14T04:27:04.343Z,98012.89
2023-08-14T04:30:07.691Z,98022.70
2023-08-14T04:33:10.654Z,98026.15
2023-08-14T04:36:13.640Z,98023.23
2023-08-14T04:39:16.730Z,98024.17
2023-08-14T04:42:19.848Z,98026.10
2023-08-14T04:45:23.215Z,98024.98
2023-08-14T04:48:26.171Z,98022.34
2023-08-14T04:51:29.517Z,98021.50
2023-08-14T04:54:33.299Z,98023.51
2023-08-14T04:57:36.214Z,98023.79
2023-08-14T05:00:39.854Z,98027.23
2023-08-14T05:03:42.754Z,98028.60
2023-08-14T05:06:46.092Z,98026.14
2023-08-14T05:09:49.663Z,98025.98
2023-08-14T05:12:52.717Z,98028.86
2023-08-14T05:16:07.064Z,98032.48
2023-08-14T05:19:11.061Z,98028.01
2023-08-14T05:22:13.995Z,98028.33
2023-08-14T05:25:16.820Z,98021.23
2023-08-14T05:28:19.794Z,98024.30
2023-08-14T05:31:22.732Z,98019.88
2023-08-14T05:34:25.586Z,98021.41
2023-08-14T05:37:28.461Z,98031.05
2023-08-14T05:40:31.377Z,98030.14
2023-08-14T05:43:34.269Z,98029.56
2023-08-14T05:46:37.147Z,98032.66
2023-08-14T05:49:40.243Z,98031.48
2023-08-14T05:52:44.354Z,98033.95
2023-08-14T05:55:47.297Z,98037.36
2023-08-14T05:58:50.196Z,98038.48
2023-08-14T06:01:55.638Z,98034.39
2023-08-14T06:05:00.471Z,98034.38
2023-08-14T06:08:05.087Z,98032.66
2023-08-14T06:11:08.014Z,98041.02
2023-08-14T06:14:10.892Z,98038.27
2023-08-14T06:17:13.799Z,98043.14
2023-08-14T06:20:16.781Z,98043.25
2023-08-14T06:23:20.383Z,98041.95
2023-08-14T06:26:23.534Z,98044.15
2023-08-14T06:29:26.387Z,98046.55
2023-08-14T06:32:29.321Z,98046.46
2023-08-14T06:35:32.211Z,98044.14
2023-08-14T06:38:35.491Z,98041.50
2023-08-14T06:41:38.405Z,98044.80
2023-08-14T06:44:41.343Z,98051.96
2023-08-14T06:47:46.307Z,98052.68
2023-08-14T06:50:49.332Z,98056.91
2023-08-14T06:53:54.019Z,98056.48
2023-08-14T06:56:58.583Z,98053.03
2023-08-14T07:00:07.306Z,98049.16
2023-08-14T07:03:10.364Z,98050.24
2023-08-14T07:06:13.336Z,98052.30
2023-08-14T07:09:17.986Z,98056.63
2023-08-14T07:12:21.165Z,98055.48
2023-08-14T07:15:24.338Z,98061.49
2023-08-14T07:18:27.158Z,98066.02
2023-08-14T07:21:30.176Z,98069.61
2023-08-14T07:24:33.125Z,98070.79
2023-08-14T07:27:35.979Z,98068.51
2023-08-14T07:30:40.007Z,98066.80
2023-08-14T07:33:42.882Z,98064.75
2023-08-14T07:36:45.734Z,98067.48
2023-08-14T07:39:48.807Z,98065.17
2023-08-14T07:42:51.767Z,98063.69
2023-08-14T07:45:55.609Z,98064.40
2023-08-14T07:48:58.644Z,98065.20
2023-08-14T07:52:01.622Z,98065.50
2023-08-14T07:55:05.021Z,98065.47
2023-08-14T07:58:07.898Z,98066.33
2023-08-14T08:01:11.191Z,98064.79
2023-08-14T08:04:26.500Z,98059.02
2023-08-14T08:10:36.916Z,98053.45
2023-08-14T08:13:40.078Z,98053.37
2023-08-14T08:16:42.885Z,98055.29
2023-08-14T08:19:47.773Z,98051.68
2023-08-14T08:22:51.195Z,98051.68
2023-08-14T08:25:54.216Z,98049.65
2023-08-14T08:28:57.197Z,98046.10
2023-08-14T08:32:00.119Z,98048.81
2023-08-14T08:35:03.092Z,98051.41
2023-08-14T08:38:06.159Z,98050.36
2023-08-14T08:41:09.200Z,98053.91
2023-08-14T08:44:22.705Z,98053.14
2023-08-14T08:47:30.452Z,98059.83
2023-08-14T08:50:34.341Z,98060.52
2023-08-14T08:53:37.460Z,98059.70
2023-08-14T08:56:41.595Z,98061.79
2023-08-14T08:59:44.942Z,98061.48
2023-08-14T09:02:47.784Z,98059.20
2023-08-14T09:05:52.621Z,98053.02
2023-08-14T09:08:55.342Z,98051.20
2023-08-14T09:11:58.158Z,98052.81
2023-08-14T09:15:09.527Z,98049.84
2023-08-14T09:18:12.392Z,98051.27
2023-08-14T09:21:16.702Z,98053.38
2023-08-14T09:24:20.186Z,98051.23
2023-08-14T09:27:24.409Z,98049.69
2023-08-14T09:30:28.010Z,98049.06
2023-08-14T09:33:30.975Z,98048.45
2023-08-14T09:36:37.728Z,98048.23
2023-08-14T09:39:40.713Z,98047.58
2023-08-14T09:42:45.481Z,98048.05
2023-08-14T09:45:48.551Z,98044.78
2023-08-14T09:48:51.544Z,98049.69
2023-08-14T09:51:58.765Z,98046.03
2023-08-14T09:55:10.896Z,98049.37
2023-08-14T09:58:14.688Z,98047.83
2023-08-14T10:01:19.545Z,98051.14
2023-08-14T10:04:23.798Z,98048.23
2023-08-14T10:07:27.625Z,98050.48
2023-08-14T10:10:32.348Z,98052.60
2023-08-14T10:13:43.231Z,98050.02
2023-08-14T10:16:49.740Z,98049.77
2023-08-14T10:19:54.707Z,98047.20
2023-08-14T10:22:58.703Z,98043.55
2023-08-14T10:26:02.525Z,98039.10
2023-08-14T10:29:06.901Z,98035.62
2023-08-14T10:32:10.664Z,98037.20
2023-08-14T10:35:13.669Z,98034.09
2023-08-14T10:38:18.273Z,98028.64
2023-08-14T10:41:34.389Z,98027.98
2023-08-14T10:44:37.441Z,98028.94
2023-08-14T10:47:40.451Z,98024.73
2023-08-14T10:50:43.369Z,98028.13
2023-08-14T10:53:46.619Z,98029.29
2023-08-14T10:57:00.485Z,98026.00
2023-08-14T11:00:04.595Z,98022.77
2023-08-14T11:03:09.670Z,98020.16
2023-08-14T11:06:22.974Z,98021.99
2023-08-14T11:09:33.728Z,98020.61
2023-08-14T11:12:37.231Z,98022.63
2023-08-14T11:15:41.199Z,98020.52
2023-08-14T11:18:44.368Z,98020.02
2023-08-14T11:21:49.543Z,98016.73
2023-08-14T11:24:53.148Z,98017.40
2023-08-14T11:27:56.969Z,98021.14
2023-08-14T11:30:59.855Z,98017.38
2023-08-14T11:34:03.032Z,98011.14
2023-08-14T11:37:07.833Z,98012.55
2023-08-14T11:40:14.304Z,98008.23
2023-08-14T11:43:17.256Z,98006.08
2023-08-14T11:46:20.376Z,98006.84
2023-08-14T11:49:24.344Z,98001.89
2023-08-14T11:52:28.181Z,97997.23
2023-08-14T11:55:31.232Z,97995.23
2023-08-14T11:58:38.191Z,97990.64
2023-08-14T12:01:42.618Z,97988.29
2023-08-14T12:04:45.612Z,97985.52
2023-08-14T12:07:48.556Z,97984.83
2023-08-14T12:10:51.452Z,97984.03
2023-08-14T12:13:54.384Z,97982.08
2023-08-14T12:16:58.875Z,97980.41
2023-08-14T12:20:06.857Z,97979.52
2023-08-14T12:23:14.457Z,97974.52
2023-08-14T12:26:17.333Z,97977.98
2023-08-14T12:29:22.096Z,97971.90
2023-08-14T12:32:25.676Z,97962.48
2023-08-14T12:35:28.661Z,97962.11
2023-08-14T12:38:31.511Z,97965.92
2023-08-14T12:41:34.498Z,97963.66
2023-08-14T12:44:37.410Z,97962.40
2023-08-14T12:47:40.359Z,97969.27
2023-08-14T12:50:43.368Z,97968.63
2023-08-14T12:53:46.170Z,97965.58
2023-08-14T12:56:49.141Z,97967.27
2023-08-14T12:59:52.040Z,97969.09
2023-08-14T13:02:54.882Z,97968.82
2023-08-14T13:05:58.273Z,97966.70
2023-08-14T13:09:02.950Z,97962.56
2023-08-14T13:12:06.632Z,97967.39
2023-08-14T13:15:09.587Z,97969.33
2023-08-14T13:18:12.373Z,97964.77
2023-08-14T13:21:15.328Z,97967.34
2023-08-14T13:24:18.203Z,97964.13
2023-08-14T13:27:21.481Z,97966.30
2023-08-14T13:30:24.600Z,97964.31
2023-08-14T13:33:27.462Z,97963.08
2023-08-14T13:36:30.437Z,97964.08
2023-08-14T13:39:33.477Z,97957.23
2023-08-14T13:42:36.319Z,97955.02
2023-08-14T13:45:39.102Z,97956.23
2023-08-14T13:48:42.174Z,97951.13
2023-08-14T13:51:46.055Z,97950.70
2023-08-14T13:54:51.289Z,97953.15
2023-08-14T13:57:56.829Z,97952.50
2023-08-14T14:01:02.943Z,97951.05
2023-08-14T14:04:06.987Z,97948.89
2023-08-14T14:07:12.474Z,97944.19
2023-08-14T14:10:15.518Z,97943.81
2023-08-14T14:13:18.647Z,97944.11
2023-08-14T14:16:23.471Z,97943.52
2023-08-14T14:19:27.690Z,97939.94
2023-08-14T14:22:30.638Z,97933.05
2023-08-14T14:25:33.484Z,97933.80
2023-08-14T14:28:36.349Z,97929.61
2023-08-14T14:31:39.275Z,97931.77
2023-08-14T14:34:42.294Z,97929.89
2023-08-14T14:37:46.788Z,97926.69
2023-08-14T14:40:49.650Z,97925.04
2023-08-14T14:43:52.524Z,97927.98
2023-08-14T14:46:55.732Z,97923.63
2023-08-14T14:49:58.709Z,97926.39
2023-08-14T14:53:01.564Z,97922.30
2023-08-14T14:56:06.059Z,97922.59
2023-08-14T14:59:08.892Z,97914.83
2023-08-14T15:02:23.573Z,97915.66
2023-08-14T15:05:32.079Z,97912.55
2023-08-14T15:08:34.931Z,97917.58
2023-08-14T15:11:37.885Z,97915.23
2023-08-14T15:14:40.816Z,97911.83
2023-08-14T15:17:44.863Z,97910.08
2023-08-14T15:20:47.907Z,97907.91
2023-08-14T15:23:50.747Z,97902.09
2023-08-14T15:26:53.520Z,97903.48
2023-08-14T15:29:56.429Z,97898.19
2023-08-14T15:32:59.261Z,97897.02
2023-08-14T15:36:02.192Z,97900.59
2023-08-14T15:39:05.370Z,97903.09
2023-08-14T15:42:08.276Z,97902.90
2023-08-14T15:45:14.288Z,97898.74
2023-08-14T15:48:17.631Z,97895.80
2023-08-14T15:51:20.914Z,97899.90
2023-08-14T15:54:23.733Z,97899.89
2023-08-14T15:57:27.239Z,97901.99
2023-08-14T16:00:30.111Z,97901.30
2023-08-14T16:03:32.996Z,97905.45
2023-08-14T16:06:35.869Z,97904.93
2023-08-14T16:09:39.126Z,97903.49
2023-08-14T16:12:42.028Z,97900.95
2023-08-14T16:15:44.858Z,97903.39
2023-08-14T16:18:47.717Z,97902.05
2023-08-14T16:21:50.494Z,97906.86
2023-08-14T16:24:53.334Z,97907.15
2023-08-14T16:27:56.182Z,97910.71
2023-08-14T16:30:59.164Z,97913.33
2023-08-14T16:34:02.490Z,97914.82
2023-08-14T16:37:05.529Z,97917.55
2023-08-14T16:40:09.243Z,97917.88
2023-08-14T16:43:12.975Z,97921.75
2023-08-14T16:46:15.898Z,97922.86
2023-08-14T16:49:18.776Z,97926.15
2023-08-14T16:52:21.610Z,97932.02
2023-08-14T16:55:24.754Z,97935.89
2023-08-14T16:58:27.669Z,97936.02
2023-08-14T17:01:30.487Z,97939.92
2023-08-14T17:04:34.096Z,97939.98
2023-08-14T17:07:37.049Z,97943.88
2023-08-14T17:10:40.054Z,97947.18
2023-08-14T17:13:43.055Z,97950.79
2023-08-14T17:16:45.985Z,97953.98
2023-08-14T17:19:48.836Z,97947.95
2023-08-14T17:22:51.683Z,97953.59
2023-08-14T17:25:55.256Z,97951.81
2023-08-14T17:28:58.190Z,97957.33
2023-08-14T17:32:01.166Z,97962.27
2023-08-14T17:35:04.297Z,97963.66
2023-08-14T17:38:07.126Z,97965.73
2023-08-14T17:41:11.758Z,97965.96
2023-08-14T17:44:14.886Z,97965.64
2023-08-14T17:47:18.108Z,97965.10
2023-08-14T17:50:21.327Z,97969.20
2023-08-14T17:53:25.760Z,97972.58
2023-08-14T17:56:28.999Z,97980.55
2023-08-14T17:59:32.503Z,97983.10
2023-08-14T18:02:35.618Z,97984.48
2023-08-14T18:05:38.568Z,97983.68
2023-08-14T18:08:41.481Z,97986.74
2023-08-14T18:11:44.520Z,97992.27
2023-08-14T18:14:47.810Z,97991.71
2023-08-14T18:17:50.797Z,97991.55
2023-08-14T18:20:54.002Z,97992.46
2023-08-14T18:23:57.076Z,97991.96
2023-08-14T18:27:00.039Z,97993.27
2023-08-14T18:30:03.135Z,97992.53
2023-08-14T18:33:06.151Z,97993.05
2023-08-14T18:36:09.127Z,97997.61
2023-08-14T18:39:11.993Z,98003.35
2023-08-14T18:42:14.864Z,98003.13
2023-08-14T18:45:17.811Z,98002.61
2023-08-14T18:48:20.684Z,98004.30
2023-08-14T18:51:23.665Z,98010.77
2023-08-14T18:54:27.306Z,98008.25
2023-08-14T18:57:30.196Z,98007.26
2023-08-14T19:00:33.149Z,98006.45
2023-08-14T19:03:36.084Z,98007.52
2023-08-14T19:06:39.210Z,98003.04
2023-08-14T19:09:48.525Z,98001.33
2023-08-14T19:13:14.177Z,98004.14
2023-08-14T19:16:17.242Z,98002.95
2023-08-14T19:19:20.146Z,98004.33
2023-08-14T19:22:23.895Z,97997.89
2023-08-14T19:25:30.036Z,97994.79
2023-08-14T19:28:50.105Z,98000.83
2023-08-14T19:32:01.905Z,98003.29
2023-08-14T19:35:05.951Z,98003.39
2023-08-14T19:38:08.899Z,97997.84
2023-08-14T19:41:11.853Z,97996.38
2023-08-14T19:44:15.909Z,97997.44
2023-08-14T19:47:19.044Z,97998.52
2023-08-14T19:50:25.212Z,97999.06
2023-08-14T19:53:28.208Z,98003.14
2023-08-14T19:56:31.250Z,98005.95
2023-08-14T19:59:34.225Z,98010.42
2023-08-14T20:02:37.182Z,98006.96
2023-08-14T20:05:46.020Z,97999.84
2023-08-14T20:08:49.139Z,98001.48
2023-08-14T20:11:52.038Z,98004.67
2023-08-14T20:14:55.957Z,98006.71
2023-08-14T20:17:58.935Z,98008.75
2023-08-14T20:21:01.992Z,98014.89
2023-08-14T20:24:05.551Z,98016.89
2023-08-14T20:27:09.101Z,98021.78
2023-08-14T20:30:12.733Z,98023.84
2023-08-14T20:33:16.134Z,98024.50
2023-08-14T20:36:23.319Z,98023.66
2023-08-14T20:39:28.886Z,98025.52
2023-08-14T20:42:32.018Z,98021.61
2023-08-14T20:45:37.804Z,98023.83
2023-08-14T20:48:40.982Z,98025.36
2023-08-14T20:51:44.029Z,98029.73
2023-08-14T20:54:46.986Z,98027.27
2023-08-14T20:57:49.941Z,98018.70
2023-08-14T21:00:53.240Z,98020.59
2023-08-14T21:03:56.296Z,98022.86
2023-08-14T21:06:59.392Z,98024.01
2023-08-14T21:10:02.481Z,98021.30
2023-08-14T21:13:05.843Z,98022.94
2023-08-14T21:16:09.154Z,98026.83
2023-08-14T21:19:12.960Z,98026.11
2023-08-14T21:22:16.367Z,98021.17
2023-08-14T21:25:19.480Z,98020.92
2023-08-14T21:28:22.613Z,98022.13
2023-08-14T21:31:25.712Z,98025.25
2023-08-14T21:34:30.600Z,98025.79
2023-08-14T21:37:34.020Z,98028.13
2023-08-14T21:40:40.328Z,98027.27
2023-08-14T21:43:43.443Z,98023.20
2023-08-14T21:46:46.415Z,98025.38
2023-08-14T21:49:49.549Z,98033.65
2023-08-14T21:52:52.476Z,98031.27
2023-08-14T21:55:55.367Z,98027.95
2023-08-14T21:58:58.408Z,98030.08
2023-08-14T22:02:01.350Z,98029.02
2023-08-14T22:05:04.651Z,98023.55
2023-08-14T22:08:07.646Z,98020.54
2023-08-14T22:11:11.255Z,98018.77
2023-08-14T22:14:14.180Z,98014.10
2023-08-14T22:17:17.341Z,98014.55
2023-08-14T22:20:20.537Z,98014.76
2023-08-14T22:23:23.457Z,98015.55
2023-08-14T22:26:26.350Z,98013.19
2023-08-14T22:29:29.219Z,98015.77
2023-08-14T22:32:32.369Z,98012.58
2023-08-14T22:35:35.267Z,98016.66
2023-08-14T22:38:39.022Z,98011.88
2023-08-14T22:41:41.922Z,98010.96
2023-08-14T22:44:44.913Z,98009.61
2023-08-14T22:47:50.415Z,98011.66
2023-08-14T22:50:54.895Z,98014.45
2023-08-14T22:53:58.396Z,98014.00
2023-08-14T22:57:03.618Z,98013.04
2023-08-14T23:00:10.063Z,98009.23
2023-08-14T23:03:13.110Z,98007.46
2023-08-14T23:06:16.203Z,98006.30
2023-08-14T23:09:19.588Z,98008.48
2023-08-14T23:12:22.592Z,98010.94
2023-08-14T23:15:25.544Z,98009.67
2023-08-14T23:18:28.655Z,98006.98
2023-08-14T23:21:31.563Z,98005.28
2023-08-14T23:24:34.450Z,98006.20
2023-08-14T23:27:38.228Z,98011.72
2023-08-14T23:30:41.669Z,98009.92
2023-08-14T23:33:45.053Z,98011.33
2023-08-14T23:36:48.276Z,98013.77
2023-08-14T23:39:51.152Z,98016.41
2023-08-14T23:42:54.055Z,98018.88
2023-08-14T23:45:56.949Z,98022.39
2023-08-14T23:48:59.905Z,98022.20
2023-08-14T23:52:03.375Z,98021.84
2023-08-14T23:55:07.074Z,98026.52
2023-08-14T23:58:10.197Z,98027.95
